This is the latest recevied weather packets stored in our database for station/object N2WH. If no packets are shown the sender has not sent any weather packets the latest 10 day(s).
| Time | Temp. | Humidity | Pressure | Rain* | Wind** | Luminosity | Snow |
|---|---|---|---|---|---|---|---|
| 1777999774 | 26.11° C | 44% | 1010.8 hPa | 0 mm | - | 724 W/m² | - |
| 1777999471 | 26.11° C | 45% | 1010.8 hPa | 0 mm | - | 704 W/m² | - |
| 1777999169 | 26.11° C | 46% | 1010.8 hPa | 0 mm | - | 700 W/m² | - |
| 1777998868 | 26.67° C | 44% | 1010.9 hPa | 0 mm | - | 711 W/m² | - |
| 1777998567 | 26.67° C | 45% | 1010.9 hPa | 0 mm | - | 693 W/m² | - |
| 1777998262 | 26.67° C | 45% | 1011 hPa | 0 mm | - | 715 W/m² | - |
| 1777997959 | 26.67° C | 45% | 1011 hPa | 0 mm | - | 725 W/m² | - |
| 1777997655 | 26.67° C | 46% | 1011.2 hPa | 0 mm | - | 742 W/m² | - |
| 1777997353 | 26.67° C | 45% | 1011.1 hPa | 0 mm | - | 734 W/m² | - |
| 1777997051 | 26.67° C | 47% | 1011.3 hPa | 0 mm | - | 760 W/m² | - |
| 1777996747 | 26.11° C | 45% | 1011.4 hPa | 0 mm | - | 768 W/m² | - |
| 1777996443 | 26.11° C | 46% | 1011.4 hPa | 0 mm | - | 748 W/m² | - |
| 1777996141 | 25.56° C | 47% | 1011.2 hPa | 0 mm | - | 737 W/m² | - |
| 1777995836 | 25.56° C | 49% | 1011.4 hPa | 0 mm | - | 767 W/m² | - |
| 1777995533 | 25° C | 47% | 1011.7 hPa | 0 mm | - | 778 W/m² | - |
| 1777995230 | 25° C | 48% | 1011.6 hPa | 0 mm | - | 767 W/m² | - |
| 1777994926 | 25° C | 48% | 1011.5 hPa | 0 mm | - | 646 W/m² | - |
| 1777994624 | 25° C | 48% | 1011.8 hPa | 0 mm | - | 772 W/m² | - |
| 1777994318 | 25° C | 50% | 1011.9 hPa | 0 mm | - | 803 W/m² | - |
| 1777994015 | 25° C | 49% | 1011.8 hPa | 0 mm | - | 791 W/m² | - |
| 1777993712 | 25° C | 50% | 1011.8 hPa | 0 mm | - | 767 W/m² | - |
| 1777993409 | 23.89° C | 51% | 1011.7 hPa | 0 mm | - | 764 W/m² | - |
| 1777993103 | 23.89° C | 48% | 1011.9 hPa | 0 mm | - | 767 W/m² | - |
| 1777992802 | 23.89° C | 51% | 1011.6 hPa | 0 mm | - | 723 W/m² | - |
| 1777992499 | 23.89° C | 50% | 1011.6 hPa | 0 mm | - | 768 W/m² | - |
* Rain latest hour (hover to see other rain measurements)
** Current wind speed in m/s (hover to see current wind gust speed)